sensor_id;sensor_type;location;lat;lon;timestamp;P1;durP1;ratioP1;P2;durP2;ratioP2
48363;SDS011;34170;54.364;18.582;2023-05-10T00:00:03;14.13;;;5.45;;
48363;SDS011;34170;54.364;18.582;2023-05-10T00:02:59;13.27;;;5.65;;
48363;SDS011;34170;54.364;18.582;2023-05-10T00:05:26;10.90;;;4.93;;
48363;SDS011;34170;54.364;18.582;2023-05-10T00:07:53;12.63;;;5.70;;
48363;SDS011;34170;54.364;18.582;2023-05-10T00:10:21;10.15;;;4.95;;
48363;SDS011;34170;54.364;18.582;2023-05-10T00:12:48;10.77;;;4.55;;
48363;SDS011;34170;54.364;18.582;2023-05-10T00:15:16;9.05;;;4.15;;
48363;SDS011;34170;54.364;18.582;2023-05-10T00:17:43;9.55;;;3.72;;
48363;SDS011;34170;54.364;18.582;2023-05-10T00:20:11;11.88;;;4.70;;
48363;SDS011;34170;54.364;18.582;2023-05-10T00:22:38;6.22;;;4.22;;
48363;SDS011;34170;54.364;18.582;2023-05-10T00:25:06;10.07;;;4.50;;
48363;SDS011;34170;54.364;18.582;2023-05-10T00:27:34;10.98;;;4.38;;
48363;SDS011;34170;54.364;18.582;2023-05-10T00:30:01;7.50;;;4.60;;
48363;SDS011;34170;54.364;18.582;2023-05-10T00:32:30;8.00;;;3.67;;
48363;SDS011;34170;54.364;18.582;2023-05-10T00:34:58;10.70;;;4.22;;
48363;SDS011;34170;54.364;18.582;2023-05-10T00:37:26;9.15;;;4.00;;
48363;SDS011;34170;54.364;18.582;2023-05-10T00:39:54;10.07;;;3.95;;
48363;SDS011;34170;54.364;18.582;2023-05-10T00:42:21;9.77;;;3.63;;
48363;SDS011;34170;54.364;18.582;2023-05-10T00:44:51;11.27;;;4.10;;
48363;SDS011;34170;54.364;18.582;2023-05-10T00:47:18;7.97;;;3.35;;
48363;SDS011;34170;54.364;18.582;2023-05-10T00:49:46;10.90;;;4.55;;
48363;SDS011;34170;54.364;18.582;2023-05-10T00:52:13;8.70;;;3.65;;
48363;SDS011;34170;54.364;18.582;2023-05-10T00:54:41;8.93;;;4.20;;
48363;SDS011;34170;54.364;18.582;2023-05-10T00:57:10;12.90;;;3.45;;
48363;SDS011;34170;54.364;18.582;2023-05-10T00:59:38;9.93;;;3.63;;
48363;SDS011;34170;54.364;18.582;2023-05-10T01:02:05;11.10;;;5.18;;
48363;SDS011;34170;54.364;18.582;2023-05-10T01:04:33;8.88;;;3.22;;
48363;SDS011;34170;54.364;18.582;2023-05-10T01:07:02;7.20;;;3.40;;
48363;SDS011;34170;54.364;18.582;2023-05-10T01:09:30;7.68;;;4.00;;
48363;SDS011;34170;54.364;18.582;2023-05-10T01:11:59;5.28;;;3.08;;
48363;SDS011;34170;54.364;18.582;2023-05-10T01:14:28;9.82;;;3.90;;
48363;SDS011;34170;54.364;18.582;2023-05-10T01:16:57;11.23;;;3.63;;
48363;SDS011;34170;54.364;18.582;2023-05-10T01:19:25;8.18;;;3.75;;
48363;SDS011;34170;54.364;18.582;2023-05-10T01:33:21;7.05;;;3.72;;
48363;SDS011;34170;54.364;18.582;2023-05-10T01:36:24;7.47;;;4.25;;
48363;SDS011;34170;54.364;18.582;2023-05-10T01:38:56;8.50;;;4.00;;
48363;SDS011;34170;54.364;18.582;2023-05-10T01:44:35;6.35;;;3.40;;
48363;SDS011;34170;54.364;18.582;2023-05-10T01:47:08;12.75;;;4.05;;
48363;SDS011;34170;54.364;18.582;2023-05-10T01:49:42;6.85;;;3.60;;
48363;SDS011;34170;54.364;18.582;2023-05-10T01:52:16;5.95;;;3.60;;
48363;SDS011;34170;54.364;18.582;2023-05-10T01:57:22;6.55;;;3.60;;
48363;SDS011;34170;54.364;18.582;2023-05-10T01:59:54;10.35;;;3.50;;
48363;SDS011;34170;54.364;18.582;2023-05-10T02:02:22;7.93;;;3.40;;
48363;SDS011;34170;54.364;18.582;2023-05-10T02:04:51;7.78;;;3.17;;
48363;SDS011;34170;54.364;18.582;2023-05-10T02:07:22;8.68;;;3.67;;
48363;SDS011;34170;54.364;18.582;2023-05-10T02:09:50;7.95;;;3.13;;
48363;SDS011;34170;54.364;18.582;2023-05-10T02:12:20;4.97;;;3.30;;
48363;SDS011;34170;54.364;18.582;2023-05-10T02:14:49;8.10;;;3.88;;
48363;SDS011;34170;54.364;18.582;2023-05-10T02:17:19;8.02;;;3.75;;
48363;SDS011;34170;54.364;18.582;2023-05-10T02:19:48;6.15;;;3.28;;
48363;SDS011;34170;54.364;18.582;2023-05-10T02:22:18;9.27;;;3.80;;
48363;SDS011;34170;54.364;18.582;2023-05-10T02:24:47;18.30;;;9.88;;
48363;SDS011;34170;54.364;18.582;2023-05-10T02:27:17;5.82;;;3.15;;
48363;SDS011;34170;54.364;18.582;2023-05-10T02:29:46;5.90;;;3.05;;
48363;SDS011;34170;54.364;18.582;2023-05-10T02:32:15;5.72;;;3.20;;
48363;SDS011;34170;54.364;18.582;2023-05-10T02:34:44;8.05;;;3.55;;
48363;SDS011;34170;54.364;18.582;2023-05-10T02:37:19;6.43;;;3.78;;
48363;SDS011;34170;54.364;18.582;2023-05-10T02:39:49;6.95;;;3.60;;
48363;SDS011;34170;54.364;18.582;2023-05-10T02:42:18;6.72;;;3.45;;
48363;SDS011;34170;54.364;18.582;2023-05-10T02:44:50;7.50;;;3.70;;
48363;SDS011;34170;54.364;18.582;2023-05-10T02:47:19;8.23;;;3.77;;
48363;SDS011;34170;54.364;18.582;2023-05-10T02:49:47;9.05;;;3.75;;
48363;SDS011;34170;54.364;18.582;2023-05-10T02:52:16;11.05;;;3.15;;
48363;SDS011;34170;54.364;18.582;2023-05-10T02:54:50;6.50;;;3.58;;
48363;SDS011;34170;54.364;18.582;2023-05-10T03:02:21;15.30;;;6.65;;
48363;SDS011;34170;54.364;18.582;2023-05-10T03:04:49;9.93;;;4.03;;
48363;SDS011;34170;54.364;18.582;2023-05-10T03:07:16;6.45;;;3.17;;
48363;SDS011;34170;54.364;18.582;2023-05-10T03:09:47;8.13;;;4.20;;
48363;SDS011;34170;54.364;18.582;2023-05-10T03:15:19;7.40;;;2.93;;
48363;SDS011;34170;54.364;18.582;2023-05-10T03:18:07;6.28;;;3.50;;
48363;SDS011;34170;54.364;18.582;2023-05-10T03:20:42;7.15;;;3.63;;
48363;SDS011;34170;54.364;18.582;2023-05-10T03:25:45;7.68;;;3.50;;
48363;SDS011;34170;54.364;18.582;2023-05-10T03:28:16;8.20;;;3.60;;
48363;SDS011;34170;54.364;18.582;2023-05-10T03:30:45;6.78;;;3.38;;
48363;SDS011;34170;54.364;18.582;2023-05-10T03:33:13;5.55;;;3.50;;
48363;SDS011;34170;54.364;18.582;2023-05-10T03:35:44;5.63;;;3.63;;
48363;SDS011;34170;54.364;18.582;2023-05-10T03:38:13;11.07;;;4.20;;
48363;SDS011;34170;54.364;18.582;2023-05-10T03:40:41;7.30;;;3.42;;
48363;SDS011;34170;54.364;18.582;2023-05-10T03:43:08;8.00;;;3.97;;
48363;SDS011;34170;54.364;18.582;2023-05-10T03:45:36;6.40;;;3.60;;
48363;SDS011;34170;54.364;18.582;2023-05-10T03:48:04;6.30;;;3.30;;
48363;SDS011;34170;54.364;18.582;2023-05-10T03:50:32;6.78;;;3.70;;
48363;SDS011;34170;54.364;18.582;2023-05-10T03:52:59;6.70;;;3.33;;
48363;SDS011;34170;54.364;18.582;2023-05-10T03:55:27;6.40;;;3.50;;
48363;SDS011;34170;54.364;18.582;2023-05-10T03:57:56;8.82;;;4.13;;
48363;SDS011;34170;54.364;18.582;2023-05-10T04:00:23;6.97;;;3.92;;
48363;SDS011;34170;54.364;18.582;2023-05-10T04:02:53;8.10;;;4.13;;
48363;SDS011;34170;54.364;18.582;2023-05-10T04:05:22;6.28;;;3.38;;
48363;SDS011;34170;54.364;18.582;2023-05-10T04:07:51;9.82;;;4.20;;
48363;SDS011;34170;54.364;18.582;2023-05-10T04:10:19;7.68;;;3.60;;
48363;SDS011;34170;54.364;18.582;2023-05-10T04:12:46;9.55;;;4.15;;
48363;SDS011;34170;54.364;18.582;2023-05-10T04:15:13;8.35;;;3.90;;
48363;SDS011;34170;54.364;18.582;2023-05-10T04:17:41;6.65;;;3.33;;
48363;SDS011;34170;54.364;18.582;2023-05-10T04:20:08;7.82;;;4.00;;
48363;SDS011;34170;54.364;18.582;2023-05-10T04:22:36;8.82;;;4.38;;
48363;SDS011;34170;54.364;18.582;2023-05-10T04:25:04;6.88;;;4.00;;
48363;SDS011;34170;54.364;18.582;2023-05-10T04:27:32;9.15;;;4.03;;
48363;SDS011;34170;54.364;18.582;2023-05-10T04:29:59;6.90;;;4.32;;
48363;SDS011;34170;54.364;18.582;2023-05-10T04:32:27;13.32;;;5.90;;
48363;SDS011;34170;54.364;18.582;2023-05-10T04:34:54;7.00;;;4.05;;
48363;SDS011;34170;54.364;18.582;2023-05-10T04:37:22;10.75;;;4.20;;
48363;SDS011;34170;54.364;18.582;2023-05-10T04:39:49;6.40;;;3.40;;
48363;SDS011;34170;54.364;18.582;2023-05-10T04:42:17;5.63;;;3.70;;
48363;SDS011;34170;54.364;18.582;2023-05-10T04:44:44;9.00;;;4.40;;
48363;SDS011;34170;54.364;18.582;2023-05-10T04:47:12;7.97;;;3.70;;
48363;SDS011;34170;54.364;18.582;2023-05-10T04:49:40;6.00;;;3.38;;
48363;SDS011;34170;54.364;18.582;2023-05-10T04:52:07;8.10;;;3.83;;
48363;SDS011;34170;54.364;18.582;2023-05-10T04:54:35;10.43;;;4.20;;
48363;SDS011;34170;54.364;18.582;2023-05-10T04:57:02;7.13;;;3.22;;
48363;SDS011;34170;54.364;18.582;2023-05-10T04:59:31;7.82;;;3.72;;
48363;SDS011;34170;54.364;18.582;2023-05-10T05:01:58;6.97;;;4.05;;
48363;SDS011;34170;54.364;18.582;2023-05-10T05:04:25;7.35;;;4.03;;
48363;SDS011;34170;54.364;18.582;2023-05-10T05:06:53;7.25;;;3.88;;
48363;SDS011;34170;54.364;18.582;2023-05-10T05:09:20;8.25;;;4.00;;
48363;SDS011;34170;54.364;18.582;2023-05-10T05:11:48;8.02;;;3.58;;
48363;SDS011;34170;54.364;18.582;2023-05-10T05:14:15;5.32;;;3.97;;
48363;SDS011;34170;54.364;18.582;2023-05-10T05:16:43;6.07;;;3.55;;
48363;SDS011;34170;54.364;18.582;2023-05-10T05:19:10;6.57;;;4.10;;
48363;SDS011;34170;54.364;18.582;2023-05-10T05:21:37;7.47;;;3.35;;
48363;SDS011;34170;54.364;18.582;2023-05-10T05:24:06;5.80;;;3.92;;
48363;SDS011;34170;54.364;18.582;2023-05-10T05:26:34;6.72;;;4.30;;
48363;SDS011;34170;54.364;18.582;2023-05-10T05:29:01;8.13;;;4.68;;
48363;SDS011;34170;54.364;18.582;2023-05-10T05:31:30;6.65;;;4.35;;
48363;SDS011;34170;54.364;18.582;2023-05-10T05:33:57;10.23;;;4.28;;
48363;SDS011;34170;54.364;18.582;2023-05-10T05:36:28;7.47;;;3.95;;
48363;SDS011;34170;54.364;18.582;2023-05-10T05:38:59;7.40;;;3.72;;
48363;SDS011;34170;54.364;18.582;2023-05-10T05:41:27;8.07;;;4.20;;
48363;SDS011;34170;54.364;18.582;2023-05-10T05:43:54;12.50;;;4.55;;
48363;SDS011;34170;54.364;18.582;2023-05-10T05:46:22;9.77;;;4.93;;
48363;SDS011;34170;54.364;18.582;2023-05-10T05:48:50;12.32;;;4.03;;
48363;SDS011;34170;54.364;18.582;2023-05-10T05:51:18;11.30;;;3.58;;
48363;SDS011;34170;54.364;18.582;2023-05-10T05:53:45;6.30;;;3.88;;
48363;SDS011;34170;54.364;18.582;2023-05-10T05:56:12;7.30;;;3.30;;
48363;SDS011;34170;54.364;18.582;2023-05-10T05:58:40;6.75;;;3.63;;
48363;SDS011;34170;54.364;18.582;2023-05-10T06:01:07;6.65;;;3.42;;
48363;SDS011;34170;54.364;18.582;2023-05-10T06:03:35;7.18;;;4.00;;
48363;SDS011;34170;54.364;18.582;2023-05-10T06:06:02;9.10;;;3.60;;
48363;SDS011;34170;54.364;18.582;2023-05-10T06:08:30;8.13;;;4.07;;
48363;SDS011;34170;54.364;18.582;2023-05-10T06:10:57;9.10;;;3.67;;
48363;SDS011;34170;54.364;18.582;2023-05-10T06:13:25;6.63;;;3.75;;
48363;SDS011;34170;54.364;18.582;2023-05-10T06:15:56;6.95;;;3.80;;
48363;SDS011;34170;54.364;18.582;2023-05-10T06:18:23;8.40;;;4.40;;
48363;SDS011;34170;54.364;18.582;2023-05-10T06:20:50;10.20;;;3.70;;
48363;SDS011;34170;54.364;18.582;2023-05-10T06:23:18;7.53;;;4.75;;
48363;SDS011;34170;54.364;18.582;2023-05-10T06:25:46;6.90;;;4.15;;
48363;SDS011;34170;54.364;18.582;2023-05-10T06:28:13;9.00;;;4.57;;
48363;SDS011;34170;54.364;18.582;2023-05-10T06:30:40;10.20;;;3.53;;
48363;SDS011;34170;54.364;18.582;2023-05-10T06:33:08;7.07;;;3.75;;
48363;SDS011;34170;54.364;18.582;2023-05-10T06:35:36;10.75;;;4.72;;
48363;SDS011;34170;54.364;18.582;2023-05-10T06:38:03;9.10;;;4.43;;
48363;SDS011;34170;54.364;18.582;2023-05-10T06:40:30;12.48;;;4.20;;
48363;SDS011;34170;54.364;18.582;2023-05-10T06:42:58;7.80;;;3.80;;
48363;SDS011;34170;54.364;18.582;2023-05-10T06:45:26;7.93;;;4.15;;
48363;SDS011;34170;54.364;18.582;2023-05-10T06:47:53;10.93;;;4.35;;
48363;SDS011;34170;54.364;18.582;2023-05-10T06:50:20;7.50;;;3.88;;
48363;SDS011;34170;54.364;18.582;2023-05-10T06:52:48;8.63;;;3.60;;
48363;SDS011;34170;54.364;18.582;2023-05-10T06:55:19;9.55;;;3.58;;
48363;SDS011;34170;54.364;18.582;2023-05-10T06:57:46;8.43;;;3.80;;
48363;SDS011;34170;54.364;18.582;2023-05-10T07:00:14;7.75;;;3.72;;
48363;SDS011;34170;54.364;18.582;2023-05-10T07:02:43;8.15;;;3.40;;
48363;SDS011;34170;54.364;18.582;2023-05-10T07:05:10;6.15;;;3.13;;
48363;SDS011;34170;54.364;18.582;2023-05-10T07:07:38;7.25;;;3.40;;
48363;SDS011;34170;54.364;18.582;2023-05-10T07:10:06;10.43;;;3.30;;
48363;SDS011;34170;54.364;18.582;2023-05-10T07:12:34;6.88;;;2.90;;
48363;SDS011;34170;54.364;18.582;2023-05-10T07:15:02;3.95;;;2.65;;
48363;SDS011;34170;54.364;18.582;2023-05-10T07:17:30;5.25;;;2.88;;
48363;SDS011;34170;54.364;18.582;2023-05-10T07:19:58;9.23;;;3.35;;
48363;SDS011;34170;54.364;18.582;2023-05-10T07:22:27;5.65;;;2.67;;
48363;SDS011;34170;54.364;18.582;2023-05-10T07:24:54;6.50;;;3.10;;
48363;SDS011;34170;54.364;18.582;2023-05-10T07:27:21;7.43;;;3.35;;
48363;SDS011;34170;54.364;18.582;2023-05-10T07:29:49;6.50;;;2.97;;
48363;SDS011;34170;54.364;18.582;2023-05-10T07:32:16;6.28;;;2.75;;
48363;SDS011;34170;54.364;18.582;2023-05-10T07:34:44;4.85;;;2.40;;
48363;SDS011;34170;54.364;18.582;2023-05-10T07:37:11;6.45;;;2.88;;
48363;SDS011;34170;54.364;18.582;2023-05-10T07:39:38;5.80;;;2.60;;
48363;SDS011;34170;54.364;18.582;2023-05-10T07:42:06;6.43;;;2.80;;
48363;SDS011;34170;54.364;18.582;2023-05-10T07:44:34;5.63;;;2.83;;
48363;SDS011;34170;54.364;18.582;2023-05-10T07:47:01;8.95;;;2.90;;
48363;SDS011;34170;54.364;18.582;2023-05-10T07:49:29;8.93;;;3.33;;
48363;SDS011;34170;54.364;18.582;2023-05-10T07:51:56;7.15;;;2.33;;
48363;SDS011;34170;54.364;18.582;2023-05-10T07:54:23;7.70;;;3.22;;
48363;SDS011;34170;54.364;18.582;2023-05-10T07:56:51;4.65;;;2.40;;
48363;SDS011;34170;54.364;18.582;2023-05-10T07:59:18;7.38;;;2.60;;
48363;SDS011;34170;54.364;18.582;2023-05-10T08:01:46;4.22;;;2.00;;
48363;SDS011;34170;54.364;18.582;2023-05-10T08:04:13;4.80;;;2.17;;
48363;SDS011;34170;54.364;18.582;2023-05-10T08:06:41;5.30;;;1.90;;
48363;SDS011;34170;54.364;18.582;2023-05-10T08:09:08;7.97;;;2.20;;
48363;SDS011;34170;54.364;18.582;2023-05-10T08:11:36;6.32;;;2.40;;
48363;SDS011;34170;54.364;18.582;2023-05-10T08:14:04;7.50;;;2.38;;
48363;SDS011;34170;54.364;18.582;2023-05-10T08:16:31;5.40;;;2.63;;
48363;SDS011;34170;54.364;18.582;2023-05-10T08:18:59;6.10;;;2.67;;
48363;SDS011;34170;54.364;18.582;2023-05-10T08:21:27;5.03;;;1.92;;
48363;SDS011;34170;54.364;18.582;2023-05-10T08:23:54;5.57;;;2.60;;
48363;SDS011;34170;54.364;18.582;2023-05-10T08:26:22;6.05;;;2.50;;
48363;SDS011;34170;54.364;18.582;2023-05-10T08:28:49;6.28;;;2.80;;
48363;SDS011;34170;54.364;18.582;2023-05-10T08:31:16;8.98;;;2.53;;
48363;SDS011;34170;54.364;18.582;2023-05-10T08:33:45;7.88;;;2.38;;
48363;SDS011;34170;54.364;18.582;2023-05-10T08:36:12;5.18;;;2.15;;
48363;SDS011;34170;54.364;18.582;2023-05-10T08:38:42;11.18;;;2.00;;
48363;SDS011;34170;54.364;18.582;2023-05-10T08:41:09;8.35;;;2.22;;
48363;SDS011;34170;54.364;18.582;2023-05-10T08:43:38;7.93;;;2.15;;
48363;SDS011;34170;54.364;18.582;2023-05-10T08:46:06;5.20;;;2.00;;
48363;SDS011;34170;54.364;18.582;2023-05-10T08:48:36;10.27;;;2.20;;
48363;SDS011;34170;54.364;18.582;2023-05-10T08:51:04;6.75;;;1.73;;
48363;SDS011;34170;54.364;18.582;2023-05-10T08:53:33;9.68;;;2.15;;
48363;SDS011;34170;54.364;18.582;2023-05-10T08:56:04;8.38;;;2.78;;
48363;SDS011;34170;54.364;18.582;2023-05-10T08:58:32;8.63;;;2.30;;
48363;SDS011;34170;54.364;18.582;2023-05-10T09:00:59;8.85;;;2.13;;
48363;SDS011;34170;54.364;18.582;2023-05-10T09:03:28;4.90;;;1.80;;
48363;SDS011;34170;54.364;18.582;2023-05-10T09:05:56;9.73;;;1.80;;
48363;SDS011;34170;54.364;18.582;2023-05-10T09:08:24;9.80;;;2.45;;
48363;SDS011;34170;54.364;18.582;2023-05-10T09:10:53;9.95;;;2.05;;
48363;SDS011;34170;54.364;18.582;2023-05-10T09:13:22;10.27;;;2.00;;
48363;SDS011;34170;54.364;18.582;2023-05-10T09:15:50;5.60;;;1.63;;
48363;SDS011;34170;54.364;18.582;2023-05-10T09:18:18;15.07;;;2.30;;
48363;SDS011;34170;54.364;18.582;2023-05-10T09:20:46;4.38;;;1.63;;
48363;SDS011;34170;54.364;18.582;2023-05-10T09:23:14;2.92;;;1.60;;
48363;SDS011;34170;54.364;18.582;2023-05-10T09:25:41;4.65;;;1.55;;
48363;SDS011;34170;54.364;18.582;2023-05-10T09:28:09;5.07;;;1.83;;
48363;SDS011;34170;54.364;18.582;2023-05-10T09:30:37;3.78;;;1.63;;
48363;SDS011;34170;54.364;18.582;2023-05-10T09:33:06;5.78;;;1.65;;
48363;SDS011;34170;54.364;18.582;2023-05-10T09:35:34;4.53;;;1.65;;
48363;SDS011;34170;54.364;18.582;2023-05-10T09:38:04;6.13;;;1.80;;
48363;SDS011;34170;54.364;18.582;2023-05-10T09:40:32;6.90;;;1.77;;
48363;SDS011;34170;54.364;18.582;2023-05-10T09:45:29;7.75;;;1.98;;
48363;SDS011;34170;54.364;18.582;2023-05-10T09:47:58;4.38;;;1.80;;
48363;SDS011;34170;54.364;18.582;2023-05-10T09:50:27;7.43;;;1.65;;
48363;SDS011;34170;54.364;18.582;2023-05-10T09:52:57;7.25;;;1.92;;
48363;SDS011;34170;54.364;18.582;2023-05-10T09:55:38;3.45;;;2.13;;
48363;SDS011;34170;54.364;18.582;2023-05-10T09:58:06;4.55;;;2.08;;
48363;SDS011;34170;54.364;18.582;2023-05-10T10:00:38;7.35;;;1.90;;
48363;SDS011;34170;54.364;18.582;2023-05-10T10:03:13;7.85;;;1.95;;
48363;SDS011;34170;54.364;18.582;2023-05-10T10:05:43;6.60;;;2.05;;
48363;SDS011;34170;54.364;18.582;2023-05-10T10:08:12;4.00;;;1.80;;
48363;SDS011;34170;54.364;18.582;2023-05-10T10:10:40;7.70;;;1.95;;
48363;SDS011;34170;54.364;18.582;2023-05-10T10:13:08;7.22;;;1.75;;
48363;SDS011;34170;54.364;18.582;2023-05-10T10:15:35;5.35;;;2.10;;
48363;SDS011;34170;54.364;18.582;2023-05-10T10:18:03;8.02;;;2.50;;
48363;SDS011;34170;54.364;18.582;2023-05-10T10:20:32;9.63;;;2.00;;
48363;SDS011;34170;54.364;18.582;2023-05-10T10:22:59;8.35;;;1.83;;
48363;SDS011;34170;54.364;18.582;2023-05-10T10:25:27;7.20;;;1.70;;
48363;SDS011;34170;54.364;18.582;2023-05-10T10:28:09;7.05;;;1.75;;
48363;SDS011;34170;54.364;18.582;2023-05-10T10:31:11;5.50;;;1.65;;
48363;SDS011;34170;54.364;18.582;2023-05-10T10:33:59;4.40;;;1.47;;
48363;SDS011;34170;54.364;18.582;2023-05-10T10:36:40;5.07;;;2.17;;
48363;SDS011;34170;54.364;18.582;2023-05-10T10:39:12;6.03;;;2.03;;
48363;SDS011;34170;54.364;18.582;2023-05-10T10:41:49;5.88;;;1.88;;
48363;SDS011;34170;54.364;18.582;2023-05-10T10:52:13;8.90;;;2.13;;
48363;SDS011;34170;54.364;18.582;2023-05-10T10:57:28;9.57;;;2.42;;
48363;SDS011;34170;54.364;18.582;2023-05-10T11:03:03;5.35;;;1.73;;
48363;SDS011;34170;54.364;18.582;2023-05-10T11:05:39;6.03;;;1.90;;
48363;SDS011;34170;54.364;18.582;2023-05-10T11:08:10;6.72;;;2.42;;
48363;SDS011;34170;54.364;18.582;2023-05-10T11:13:44;5.15;;;2.05;;
48363;SDS011;34170;54.364;18.582;2023-05-10T11:16:21;6.38;;;1.80;;
48363;SDS011;34170;54.364;18.582;2023-05-10T11:18:56;8.88;;;1.83;;
48363;SDS011;34170;54.364;18.582;2023-05-10T11:21:26;5.78;;;1.40;;
48363;SDS011;34170;54.364;18.582;2023-05-10T11:23:57;7.65;;;2.10;;
48363;SDS011;34170;54.364;18.582;2023-05-10T11:26:35;12.82;;;2.20;;
48363;SDS011;34170;54.364;18.582;2023-05-10T11:29:02;6.60;;;2.35;;
48363;SDS011;34170;54.364;18.582;2023-05-10T11:31:32;9.68;;;2.03;;
48363;SDS011;34170;54.364;18.582;2023-05-10T11:34:00;5.65;;;1.90;;
48363;SDS011;34170;54.364;18.582;2023-05-10T11:36:29;6.90;;;1.52;;
48363;SDS011;34170;54.364;18.582;2023-05-10T11:39:00;5.03;;;1.70;;
48363;SDS011;34170;54.364;18.582;2023-05-10T11:41:29;5.22;;;1.80;;
48363;SDS011;34170;54.364;18.582;2023-05-10T11:43:57;4.53;;;1.50;;
48363;SDS011;34170;54.364;18.582;2023-05-10T11:46:26;7.40;;;1.73;;
48363;SDS011;34170;54.364;18.582;2023-05-10T11:48:59;9.27;;;1.80;;
48363;SDS011;34170;54.364;18.582;2023-05-10T11:51:29;4.70;;;1.60;;
48363;SDS011;34170;54.364;18.582;2023-05-10T11:53:56;4.50;;;2.05;;
48363;SDS011;34170;54.364;18.582;2023-05-10T11:56:24;3.38;;;1.40;;
48363;SDS011;34170;54.364;18.582;2023-05-10T11:58:54;5.82;;;2.05;;
48363;SDS011;34170;54.364;18.582;2023-05-10T12:01:26;7.15;;;2.10;;
48363;SDS011;34170;54.364;18.582;2023-05-10T12:03:54;8.07;;;1.92;;
48363;SDS011;34170;54.364;18.582;2023-05-10T12:06:28;8.45;;;2.10;;
48363;SDS011;34170;54.364;18.582;2023-05-10T12:08:58;10.77;;;2.08;;
48363;SDS011;34170;54.364;18.582;2023-05-10T12:11:26;6.13;;;1.60;;
48363;SDS011;34170;54.364;18.582;2023-05-10T12:13:55;9.27;;;1.90;;
48363;SDS011;34170;54.364;18.582;2023-05-10T12:16:24;11.63;;;2.00;;
48363;SDS011;34170;54.364;18.582;2023-05-10T12:18:56;6.63;;;2.17;;
48363;SDS011;34170;54.364;18.582;2023-05-10T12:21:25;4.32;;;1.45;;
48363;SDS011;34170;54.364;18.582;2023-05-10T12:23:58;4.97;;;1.50;;
48363;SDS011;34170;54.364;18.582;2023-05-10T12:26:28;5.82;;;1.95;;
48363;SDS011;34170;54.364;18.582;2023-05-10T12:29:11;7.00;;;2.38;;
48363;SDS011;34170;54.364;18.582;2023-05-10T12:32:03;7.13;;;1.77;;
48363;SDS011;34170;54.364;18.582;2023-05-10T12:34:32;9.05;;;1.73;;
48363;SDS011;34170;54.364;18.582;2023-05-10T12:37:01;7.10;;;1.65;;
48363;SDS011;34170;54.364;18.582;2023-05-10T12:39:42;4.10;;;1.90;;
48363;SDS011;34170;54.364;18.582;2023-05-10T12:42:11;5.65;;;1.80;;
48363;SDS011;34170;54.364;18.582;2023-05-10T12:44:38;6.38;;;1.70;;
48363;SDS011;34170;54.364;18.582;2023-05-10T12:47:06;8.02;;;1.90;;
48363;SDS011;34170;54.364;18.582;2023-05-10T12:49:34;7.13;;;1.65;;
48363;SDS011;34170;54.364;18.582;2023-05-10T12:52:01;10.13;;;1.92;;
48363;SDS011;34170;54.364;18.582;2023-05-10T12:54:29;3.33;;;1.60;;
48363;SDS011;34170;54.364;18.582;2023-05-10T12:56:56;5.30;;;1.90;;
48363;SDS011;34170;54.364;18.582;2023-05-10T12:59:23;8.07;;;1.70;;
48363;SDS011;34170;54.364;18.582;2023-05-10T13:01:51;7.63;;;2.38;;
48363;SDS011;34170;54.364;18.582;2023-05-10T13:04:18;4.30;;;1.65;;
48363;SDS011;34170;54.364;18.582;2023-05-10T13:06:46;4.93;;;1.70;;
48363;SDS011;34170;54.364;18.582;2023-05-10T13:09:13;6.65;;;1.85;;
48363;SDS011;34170;54.364;18.582;2023-05-10T13:11:42;6.05;;;1.70;;
48363;SDS011;34170;54.364;18.582;2023-05-10T13:14:09;6.65;;;1.70;;
48363;SDS011;34170;54.364;18.582;2023-05-10T13:16:37;11.45;;;2.00;;
48363;SDS011;34170;54.364;18.582;2023-05-10T13:19:04;7.95;;;1.92;;
48363;SDS011;34170;54.364;18.582;2023-05-10T13:21:32;5.80;;;2.20;;
48363;SDS011;34170;54.364;18.582;2023-05-10T13:24:00;8.27;;;2.20;;
48363;SDS011;34170;54.364;18.582;2023-05-10T13:26:29;5.90;;;1.88;;
48363;SDS011;34170;54.364;18.582;2023-05-10T13:28:56;5.60;;;1.58;;
48363;SDS011;34170;54.364;18.582;2023-05-10T13:31:24;7.13;;;2.10;;
48363;SDS011;34170;54.364;18.582;2023-05-10T13:33:52;6.85;;;1.90;;
48363;SDS011;34170;54.364;18.582;2023-05-10T13:36:19;7.85;;;2.53;;
48363;SDS011;34170;54.364;18.582;2023-05-10T13:38:47;4.57;;;1.65;;
48363;SDS011;34170;54.364;18.582;2023-05-10T13:41:14;6.60;;;2.08;;
48363;SDS011;34170;54.364;18.582;2023-05-10T13:43:42;6.72;;;1.92;;
48363;SDS011;34170;54.364;18.582;2023-05-10T13:46:09;6.30;;;1.83;;
48363;SDS011;34170;54.364;18.582;2023-05-10T13:48:37;5.50;;;1.83;;
48363;SDS011;34170;54.364;18.582;2023-05-10T13:51:05;10.13;;;2.42;;
48363;SDS011;34170;54.364;18.582;2023-05-10T13:53:33;13.23;;;2.40;;
48363;SDS011;34170;54.364;18.582;2023-05-10T13:56:00;6.38;;;1.70;;
48363;SDS011;34170;54.364;18.582;2023-05-10T13:58:29;3.90;;;1.98;;
48363;SDS011;34170;54.364;18.582;2023-05-10T14:00:57;7.15;;;2.25;;
48363;SDS011;34170;54.364;18.582;2023-05-10T14:03:25;4.78;;;1.90;;
48363;SDS011;34170;54.364;18.582;2023-05-10T14:05:52;6.35;;;1.70;;
48363;SDS011;34170;54.364;18.582;2023-05-10T14:08:20;6.22;;;1.90;;
48363;SDS011;34170;54.364;18.582;2023-05-10T14:10:48;11.77;;;2.20;;
48363;SDS011;34170;54.364;18.582;2023-05-10T14:13:17;7.03;;;1.70;;
48363;SDS011;34170;54.364;18.582;2023-05-10T14:15:45;7.10;;;1.42;;
48363;SDS011;34170;54.364;18.582;2023-05-10T14:18:12;3.75;;;1.52;;
48363;SDS011;34170;54.364;18.582;2023-05-10T14:20:40;11.65;;;2.10;;
48363;SDS011;34170;54.364;18.582;2023-05-10T14:23:07;5.05;;;1.60;;
48363;SDS011;34170;54.364;18.582;2023-05-10T14:25:39;5.45;;;1.83;;
48363;SDS011;34170;54.364;18.582;2023-05-10T14:28:07;4.78;;;1.52;;
48363;SDS011;34170;54.364;18.582;2023-05-10T14:30:34;3.42;;;1.60;;
48363;SDS011;34170;54.364;18.582;2023-05-10T14:33:02;8.88;;;1.92;;
48363;SDS011;34170;54.364;18.582;2023-05-10T14:35:30;8.75;;;1.90;;
48363;SDS011;34170;54.364;18.582;2023-05-10T14:38:01;8.02;;;2.78;;
48363;SDS011;34170;54.364;18.582;2023-05-10T14:40:30;7.38;;;1.70;;
48363;SDS011;34170;54.364;18.582;2023-05-10T14:42:58;4.80;;;1.58;;
48363;SDS011;34170;54.364;18.582;2023-05-10T14:45:26;5.13;;;1.30;;
48363;SDS011;34170;54.364;18.582;2023-05-10T14:47:53;7.10;;;1.58;;
48363;SDS011;34170;54.364;18.582;2023-05-10T14:50:21;5.72;;;1.75;;
48363;SDS011;34170;54.364;18.582;2023-05-10T14:53:03;8.00;;;2.10;;
48363;SDS011;34170;54.364;18.582;2023-05-10T14:55:31;3.75;;;1.50;;
48363;SDS011;34170;54.364;18.582;2023-05-10T14:57:59;8.80;;;1.70;;
48363;SDS011;34170;54.364;18.582;2023-05-10T15:00:27;13.60;;;1.95;;
48363;SDS011;34170;54.364;18.582;2023-05-10T15:02:56;9.13;;;1.83;;
48363;SDS011;34170;54.364;18.582;2023-05-10T15:05:25;9.40;;;1.70;;
48363;SDS011;34170;54.364;18.582;2023-05-10T15:07:53;5.30;;;1.70;;
48363;SDS011;34170;54.364;18.582;2023-05-10T15:10:21;4.72;;;1.33;;
48363;SDS011;34170;54.364;18.582;2023-05-10T15:12:49;7.82;;;1.60;;
48363;SDS011;34170;54.364;18.582;2023-05-10T15:15:17;8.90;;;1.75;;
48363;SDS011;34170;54.364;18.582;2023-05-10T15:17:45;8.85;;;1.60;;
48363;SDS011;34170;54.364;18.582;2023-05-10T15:20:13;9.30;;;1.85;;
48363;SDS011;34170;54.364;18.582;2023-05-10T15:22:40;5.50;;;1.33;;
48363;SDS011;34170;54.364;18.582;2023-05-10T15:25:08;7.75;;;2.63;;
48363;SDS011;34170;54.364;18.582;2023-05-10T15:27:36;5.00;;;1.70;;
48363;SDS011;34170;54.364;18.582;2023-05-10T15:30:04;6.85;;;1.30;;